sensor_id;sensor_type;location;lat;lon;timestamp;temperature;humidity
16893;DHT22;8563;52.242;9.098;2022-08-11T00:00:45;18.50;67.60
16893;DHT22;8563;52.242;9.098;2022-08-11T00:03:20;18.50;68.00
16893;DHT22;8563;52.242;9.098;2022-08-11T00:05:54;18.40;68.00
16893;DHT22;8563;52.242;9.098;2022-08-11T00:08:29;18.40;68.10
16893;DHT22;8563;52.242;9.098;2022-08-11T00:11:06;18.40;68.30
16893;DHT22;8563;52.242;9.098;2022-08-11T00:13:44;18.30;68.50
16893;DHT22;8563;52.242;9.098;2022-08-11T00:16:19;18.30;68.50
16893;DHT22;8563;52.242;9.098;2022-08-11T00:18:54;18.30;68.40
16893;DHT22;8563;52.242;9.098;2022-08-11T00:21:28;18.30;68.60
16893;DHT22;8563;52.242;9.098;2022-08-11T00:24:02;18.20;68.50
16893;DHT22;8563;52.242;9.098;2022-08-11T00:26:35;18.20;68.50
16893;DHT22;8563;52.242;9.098;2022-08-11T00:29:09;18.20;68.50
16893;DHT22;8563;52.242;9.098;2022-08-11T00:31:44;18.20;68.60
16893;DHT22;8563;52.242;9.098;2022-08-11T00:34:24;18.20;68.80
16893;DHT22;8563;52.242;9.098;2022-08-11T00:36:59;18.10;68.70
16893;DHT22;8563;52.242;9.098;2022-08-11T00:39:42;18.10;68.90
16893;DHT22;8563;52.242;9.098;2022-08-11T00:42:21;18.20;68.50
16893;DHT22;8563;52.242;9.098;2022-08-11T00:45:05;18.20;68.60
16893;DHT22;8563;52.242;9.098;2022-08-11T00:47:52;18.20;68.60
16893;DHT22;8563;52.242;9.098;2022-08-11T00:50:45;18.10;69.10
16893;DHT22;8563;52.242;9.098;2022-08-11T00:53:33;18.10;68.70
16893;DHT22;8563;52.242;9.098;2022-08-11T00:56:27;18.10;68.50
16893;DHT22;8563;52.242;9.098;2022-08-11T00:59:36;18.10;68.70
16893;DHT22;8563;52.242;9.098;2022-08-11T01:02:22;18.00;68.90
16893;DHT22;8563;52.242;9.098;2022-08-11T01:05:22;18.00;69.20
16893;DHT22;8563;52.242;9.098;2022-08-11T01:11:40;18.00;69.20
16893;DHT22;8563;52.242;9.098;2022-08-11T01:21:20;18.00;68.80
16893;DHT22;8563;52.242;9.098;2022-08-11T01:24:39;18.00;69.20
16893;DHT22;8563;52.242;9.098;2022-08-11T01:34:03;17.90;70.90
16893;DHT22;8563;52.242;9.098;2022-08-11T01:43:35;17.80;70.80
16893;DHT22;8563;52.242;9.098;2022-08-11T01:46:32;17.80;69.90
16893;DHT22;8563;52.242;9.098;2022-08-11T01:49:11;17.80;70.70
16893;DHT22;8563;52.242;9.098;2022-08-11T01:52:06;17.70;72.00
16893;DHT22;8563;52.242;9.098;2022-08-11T01:54:43;17.60;71.40
16893;DHT22;8563;52.242;9.098;2022-08-11T01:57:30;17.60;71.00
16893;DHT22;8563;52.242;9.098;2022-08-11T02:00:10;17.60;70.70
16893;DHT22;8563;52.242;9.098;2022-08-11T02:02:50;17.60;71.60
16893;DHT22;8563;52.242;9.098;2022-08-11T02:05:46;17.60;72.40
16893;DHT22;8563;52.242;9.098;2022-08-11T02:08:41;17.50;73.20
16893;DHT22;8563;52.242;9.098;2022-08-11T02:11:23;17.40;73.90
16893;DHT22;8563;52.242;9.098;2022-08-11T02:14:11;17.40;74.10
16893;DHT22;8563;52.242;9.098;2022-08-11T02:16:54;17.30;74.80
16893;DHT22;8563;52.242;9.098;2022-08-11T02:19:37;17.30;74.80
16893;DHT22;8563;52.242;9.098;2022-08-11T02:22:35;17.30;74.10
16893;DHT22;8563;52.242;9.098;2022-08-11T02:25:35;17.30;73.80
16893;DHT22;8563;52.242;9.098;2022-08-11T02:28:17;17.30;72.60
16893;DHT22;8563;52.242;9.098;2022-08-11T02:31:01;17.30;73.20
16893;DHT22;8563;52.242;9.098;2022-08-11T02:34:05;17.30;73.70
16893;DHT22;8563;52.242;9.098;2022-08-11T02:36:48;17.30;73.10
16893;DHT22;8563;52.242;9.098;2022-08-11T02:39:27;17.20;76.10
16893;DHT22;8563;52.242;9.098;2022-08-11T02:42:10;17.10;76.90
16893;DHT22;8563;52.242;9.098;2022-08-11T02:45:27;17.00;78.00
16893;DHT22;8563;52.242;9.098;2022-08-11T02:48:10;16.80;78.10
16893;DHT22;8563;52.242;9.098;2022-08-11T02:51:13;16.80;79.50
16893;DHT22;8563;52.242;9.098;2022-08-11T02:53:53;16.70;80.00
16893;DHT22;8563;52.242;9.098;2022-08-11T02:56:39;16.70;79.50
16893;DHT22;8563;52.242;9.098;2022-08-11T02:59:24;16.70;79.40
16893;DHT22;8563;52.242;9.098;2022-08-11T03:02:24;16.70;79.30
16893;DHT22;8563;52.242;9.098;2022-08-11T03:05:06;16.60;79.00
16893;DHT22;8563;52.242;9.098;2022-08-11T03:08:04;16.60;79.80
16893;DHT22;8563;52.242;9.098;2022-08-11T03:10:45;16.60;79.80
16893;DHT22;8563;52.242;9.098;2022-08-11T03:13:48;16.60;79.30
16893;DHT22;8563;52.242;9.098;2022-08-11T03:16:45;16.50;79.80
16893;DHT22;8563;52.242;9.098;2022-08-11T03:19:29;16.50;80.00
16893;DHT22;8563;52.242;9.098;2022-08-11T03:22:11;16.50;80.40
16893;DHT22;8563;52.242;9.098;2022-08-11T03:25:07;16.40;79.70
16893;DHT22;8563;52.242;9.098;2022-08-11T03:27:48;16.50;79.50
16893;DHT22;8563;52.242;9.098;2022-08-11T03:30:28;16.50;79.60
16893;DHT22;8563;52.242;9.098;2022-08-11T03:33:18;16.40;80.60
16893;DHT22;8563;52.242;9.098;2022-08-11T03:36:27;16.30;81.30
16893;DHT22;8563;52.242;9.098;2022-08-11T03:39:11;16.30;81.50
16893;DHT22;8563;52.242;9.098;2022-08-11T03:41:55;16.30;81.90
16893;DHT22;8563;52.242;9.098;2022-08-11T03:44:47;16.20;81.50
16893;DHT22;8563;52.242;9.098;2022-08-11T03:47:38;16.20;82.00
16893;DHT22;8563;52.242;9.098;2022-08-11T03:50:26;16.10;81.60
16893;DHT22;8563;52.242;9.098;2022-08-11T03:53:13;16.10;81.40
16893;DHT22;8563;52.242;9.098;2022-08-11T04:02:27;16.10;81.80
16893;DHT22;8563;52.242;9.098;2022-08-11T04:05:37;16.10;82.60
16893;DHT22;8563;52.242;9.098;2022-08-11T04:08:43;16.00;82.60
16893;DHT22;8563;52.242;9.098;2022-08-11T04:11:50;16.00;83.20
16893;DHT22;8563;52.242;9.098;2022-08-11T04:14:54;16.00;83.10
16893;DHT22;8563;52.242;9.098;2022-08-11T04:24:26;16.00;82.00
16893;DHT22;8563;52.242;9.098;2022-08-11T04:27:38;16.00;81.40
16893;DHT22;8563;52.242;9.098;2022-08-11T04:30:16;16.00;81.30
16893;DHT22;8563;52.242;9.098;2022-08-11T04:33:09;16.10;81.00
16893;DHT22;8563;52.242;9.098;2022-08-11T04:35:52;16.20;80.50
16893;DHT22;8563;52.242;9.098;2022-08-11T04:41:52;16.40;79.30
16893;DHT22;8563;52.242;9.098;2022-08-11T04:45:12;16.40;79.40
16893;DHT22;8563;52.242;9.098;2022-08-11T04:48:09;16.50;79.60
16893;DHT22;8563;52.242;9.098;2022-08-11T04:54:30;16.50;79.90
16893;DHT22;8563;52.242;9.098;2022-08-11T04:57:36;16.50;79.50
16893;DHT22;8563;52.242;9.098;2022-08-11T05:00:34;16.60;80.30
16893;DHT22;8563;52.242;9.098;2022-08-11T05:03:45;16.70;79.90
16893;DHT22;8563;52.242;9.098;2022-08-11T05:06:48;16.80;79.80
16893;DHT22;8563;52.242;9.098;2022-08-11T05:12:45;16.90;80.00
16893;DHT22;8563;52.242;9.098;2022-08-11T05:15:26;16.90;80.20
16893;DHT22;8563;52.242;9.098;2022-08-11T05:18:22;17.00;81.40
16893;DHT22;8563;52.242;9.098;2022-08-11T05:21:13;17.10;81.10
16893;DHT22;8563;52.242;9.098;2022-08-11T05:24:12;17.10;80.90
16893;DHT22;8563;52.242;9.098;2022-08-11T05:27:07;17.20;81.00
16893;DHT22;8563;52.242;9.098;2022-08-11T05:30:03;17.30;80.10
16893;DHT22;8563;52.242;9.098;2022-08-11T05:32:57;17.50;79.90
16893;DHT22;8563;52.242;9.098;2022-08-11T05:35:53;17.70;78.60
16893;DHT22;8563;52.242;9.098;2022-08-11T05:38:29;17.80;78.30
16893;DHT22;8563;52.242;9.098;2022-08-11T05:41:23;17.90;77.20
16893;DHT22;8563;52.242;9.098;2022-08-11T05:44:17;18.00;76.50
16893;DHT22;8563;52.242;9.098;2022-08-11T05:47:09;18.00;75.50
16893;DHT22;8563;52.242;9.098;2022-08-11T05:49:59;18.10;75.10
16893;DHT22;8563;52.242;9.098;2022-08-11T05:52:49;18.20;75.40
16893;DHT22;8563;52.242;9.098;2022-08-11T05:55:40;18.30;76.00
16893;DHT22;8563;52.242;9.098;2022-08-11T05:58:34;18.30;75.60
16893;DHT22;8563;52.242;9.098;2022-08-11T06:01:08;18.30;75.60
16893;DHT22;8563;52.242;9.098;2022-08-11T06:03:44;18.40;75.80
16893;DHT22;8563;52.242;9.098;2022-08-11T06:06:38;18.50;75.80
16893;DHT22;8563;52.242;9.098;2022-08-11T06:09:12;18.70;75.60
16893;DHT22;8563;52.242;9.098;2022-08-11T06:11:45;18.90;74.80
16893;DHT22;8563;52.242;9.098;2022-08-11T06:14:19;19.20;75.20
16893;DHT22;8563;52.242;9.098;2022-08-11T06:16:55;19.40;75.30
16893;DHT22;8563;52.242;9.098;2022-08-11T06:19:35;19.90;73.80
16893;DHT22;8563;52.242;9.098;2022-08-11T06:22:10;20.50;71.60
16893;DHT22;8563;52.242;9.098;2022-08-11T06:24:50;21.10;70.20
16893;DHT22;8563;52.242;9.098;2022-08-11T06:27:24;21.90;67.20
16893;DHT22;8563;52.242;9.098;2022-08-11T06:29:57;22.60;63.30
16893;DHT22;8563;52.242;9.098;2022-08-11T06:32:32;23.40;58.90
16893;DHT22;8563;52.242;9.098;2022-08-11T06:35:22;23.90;55.80
16893;DHT22;8563;52.242;9.098;2022-08-11T06:38:05;24.20;56.30
16893;DHT22;8563;52.242;9.098;2022-08-11T06:40:45;24.60;55.10
16893;DHT22;8563;52.242;9.098;2022-08-11T06:43:46;24.70;53.80
16893;DHT22;8563;52.242;9.098;2022-08-11T06:46:25;24.80;53.90
16893;DHT22;8563;52.242;9.098;2022-08-11T06:49:02;24.50;56.60
16893;DHT22;8563;52.242;9.098;2022-08-11T06:51:37;24.20;58.40
16893;DHT22;8563;52.242;9.098;2022-08-11T06:54:11;23.90;59.50
16893;DHT22;8563;52.242;9.098;2022-08-11T06:56:45;23.70;61.00
16893;DHT22;8563;52.242;9.098;2022-08-11T06:59:36;23.70;60.70
16893;DHT22;8563;52.242;9.098;2022-08-11T07:02:29;23.80;61.60
16893;DHT22;8563;52.242;9.098;2022-08-11T07:05:07;23.80;62.30
16893;DHT22;8563;52.242;9.098;2022-08-11T07:14:38;23.80;61.90
16893;DHT22;8563;52.242;9.098;2022-08-11T07:17:36;23.80;60.80
16893;DHT22;8563;52.242;9.098;2022-08-11T07:20:09;23.80;59.90
16893;DHT22;8563;52.242;9.098;2022-08-11T07:23:06;23.80;59.10
16893;DHT22;8563;52.242;9.098;2022-08-11T07:25:59;23.90;59.40
16893;DHT22;8563;52.242;9.098;2022-08-11T07:28:50;23.70;59.10
16893;DHT22;8563;52.242;9.098;2022-08-11T07:31:31;23.50;59.60
16893;DHT22;8563;52.242;9.098;2022-08-11T07:34:16;23.40;60.70
16893;DHT22;8563;52.242;9.098;2022-08-11T07:36:53;23.50;61.70
16893;DHT22;8563;52.242;9.098;2022-08-11T07:39:31;23.60;59.60
16893;DHT22;8563;52.242;9.098;2022-08-11T07:42:07;23.40;60.50
16893;DHT22;8563;52.242;9.098;2022-08-11T07:44:41;23.40;60.70
16893;DHT22;8563;52.242;9.098;2022-08-11T07:47:32;23.50;61.00
16893;DHT22;8563;52.242;9.098;2022-08-11T07:50:24;23.40;61.90
16893;DHT22;8563;52.242;9.098;2022-08-11T07:53:14;23.50;61.30
16893;DHT22;8563;52.242;9.098;2022-08-11T07:55:52;23.60;60.70
16893;DHT22;8563;52.242;9.098;2022-08-11T07:58:25;23.50;62.50
16893;DHT22;8563;52.242;9.098;2022-08-11T08:01:18;23.60;61.70
16893;DHT22;8563;52.242;9.098;2022-08-11T08:04:11;23.60;61.90
16893;DHT22;8563;52.242;9.098;2022-08-11T08:07:03;23.70;62.10
16893;DHT22;8563;52.242;9.098;2022-08-11T08:09:53;23.70;61.10
16893;DHT22;8563;52.242;9.098;2022-08-11T08:12:45;23.80;60.30
16893;DHT22;8563;52.242;9.098;2022-08-11T08:15:34;23.80;59.80
16893;DHT22;8563;52.242;9.098;2022-08-11T08:18:25;23.90;60.00
16893;DHT22;8563;52.242;9.098;2022-08-11T08:20:58;24.00;58.90
16893;DHT22;8563;52.242;9.098;2022-08-11T08:23:44;24.00;59.00
16893;DHT22;8563;52.242;9.098;2022-08-11T08:26:17;24.00;59.00
16893;DHT22;8563;52.242;9.098;2022-08-11T08:29:09;24.00;58.90
16893;DHT22;8563;52.242;9.098;2022-08-11T08:32:00;24.10;57.40
16893;DHT22;8563;52.242;9.098;2022-08-11T08:34:34;24.20;57.90
16893;DHT22;8563;52.242;9.098;2022-08-11T08:37:08;24.40;57.70
16893;DHT22;8563;52.242;9.098;2022-08-11T08:39:41;24.50;57.20
16893;DHT22;8563;52.242;9.098;2022-08-11T08:42:18;24.60;56.10
16893;DHT22;8563;52.242;9.098;2022-08-11T08:44:57;24.80;56.20
16893;DHT22;8563;52.242;9.098;2022-08-11T08:47:35;24.80;55.40
16893;DHT22;8563;52.242;9.098;2022-08-11T08:50:10;24.90;56.00
16893;DHT22;8563;52.242;9.098;2022-08-11T08:52:49;25.00;56.80
16893;DHT22;8563;52.242;9.098;2022-08-11T08:55:26;25.00;55.90
16893;DHT22;8563;52.242;9.098;2022-08-11T08:58:00;25.00;55.50
16893;DHT22;8563;52.242;9.098;2022-08-11T09:00:41;25.10;55.70
16893;DHT22;8563;52.242;9.098;2022-08-11T09:03:15;25.30;54.40
16893;DHT22;8563;52.242;9.098;2022-08-11T09:05:52;25.30;52.90
16893;DHT22;8563;52.242;9.098;2022-08-11T09:08:26;25.50;52.50
16893;DHT22;8563;52.242;9.098;2022-08-11T09:11:03;25.70;51.10
16893;DHT22;8563;52.242;9.098;2022-08-11T09:13:53;25.70;51.80
16893;DHT22;8563;52.242;9.098;2022-08-11T09:16:28;25.80;52.40
16893;DHT22;8563;52.242;9.098;2022-08-11T09:19:01;26.00;50.50
16893;DHT22;8563;52.242;9.098;2022-08-11T09:21:34;26.10;50.40
16893;DHT22;8563;52.242;9.098;2022-08-11T09:24:09;26.20;50.00
16893;DHT22;8563;52.242;9.098;2022-08-11T09:27:04;26.20;50.20
16893;DHT22;8563;52.242;9.098;2022-08-11T09:29:38;26.40;49.30
16893;DHT22;8563;52.242;9.098;2022-08-11T09:32:12;26.50;49.80
16893;DHT22;8563;52.242;9.098;2022-08-11T09:34:45;26.60;49.70
16893;DHT22;8563;52.242;9.098;2022-08-11T09:37:20;26.60;47.80
16893;DHT22;8563;52.242;9.098;2022-08-11T09:40:19;26.60;46.60
16893;DHT22;8563;52.242;9.098;2022-08-11T09:43:02;26.70;48.40
16893;DHT22;8563;52.242;9.098;2022-08-11T09:45:53;26.80;47.40
16893;DHT22;8563;52.242;9.098;2022-08-11T09:48:30;26.80;46.30
16893;DHT22;8563;52.242;9.098;2022-08-11T09:51:07;26.90;47.20
16893;DHT22;8563;52.242;9.098;2022-08-11T09:53:42;27.00;48.10
16893;DHT22;8563;52.242;9.098;2022-08-11T09:56:18;27.00;46.10
16893;DHT22;8563;52.242;9.098;2022-08-11T09:59:09;27.00;46.00
16893;DHT22;8563;52.242;9.098;2022-08-11T10:01:44;27.10;46.10
16893;DHT22;8563;52.242;9.098;2022-08-11T10:04:25;27.10;46.30
16893;DHT22;8563;52.242;9.098;2022-08-11T10:07:02;27.10;45.20
16893;DHT22;8563;52.242;9.098;2022-08-11T10:09:39;27.10;46.30
16893;DHT22;8563;52.242;9.098;2022-08-11T10:12:17;27.10;45.90
16893;DHT22;8563;52.242;9.098;2022-08-11T10:14:53;27.30;45.70
16893;DHT22;8563;52.242;9.098;2022-08-11T10:17:47;27.40;46.50
16893;DHT22;8563;52.242;9.098;2022-08-11T10:20:37;27.40;43.70
16893;DHT22;8563;52.242;9.098;2022-08-11T10:23:12;27.60;44.90
16893;DHT22;8563;52.242;9.098;2022-08-11T10:26:02;27.50;44.20
16893;DHT22;8563;52.242;9.098;2022-08-11T10:28:53;27.50;44.90
16893;DHT22;8563;52.242;9.098;2022-08-11T10:31:26;27.60;43.50
16893;DHT22;8563;52.242;9.098;2022-08-11T10:34:16;27.60;41.20
16893;DHT22;8563;52.242;9.098;2022-08-11T10:37:08;27.60;42.70
16893;DHT22;8563;52.242;9.098;2022-08-11T10:39:44;27.50;43.80
16893;DHT22;8563;52.242;9.098;2022-08-11T10:42:17;27.60;42.40
16893;DHT22;8563;52.242;9.098;2022-08-11T10:45:06;27.60;40.70
16893;DHT22;8563;52.242;9.098;2022-08-11T10:48:01;27.70;39.80
16893;DHT22;8563;52.242;9.098;2022-08-11T10:50:34;27.80;41.50
16893;DHT22;8563;52.242;9.098;2022-08-11T10:53:26;27.70;40.30
16893;DHT22;8563;52.242;9.098;2022-08-11T10:56:16;27.70;42.10
16893;DHT22;8563;52.242;9.098;2022-08-11T10:59:08;27.70;42.70
16893;DHT22;8563;52.242;9.098;2022-08-11T11:01:42;27.70;41.20
16893;DHT22;8563;52.242;9.098;2022-08-11T11:04:16;27.70;40.00
16893;DHT22;8563;52.242;9.098;2022-08-11T11:06:54;27.60;39.90
16893;DHT22;8563;52.242;9.098;2022-08-11T11:09:32;27.70;39.40
16893;DHT22;8563;52.242;9.098;2022-08-11T11:12:10;27.70;40.80
16893;DHT22;8563;52.242;9.098;2022-08-11T11:15:02;27.80;40.40
16893;DHT22;8563;52.242;9.098;2022-08-11T11:17:56;27.80;39.80
16893;DHT22;8563;52.242;9.098;2022-08-11T11:20:38;28.00;39.70
16893;DHT22;8563;52.242;9.098;2022-08-11T11:23:15;28.00;41.10
16893;DHT22;8563;52.242;9.098;2022-08-11T11:26:07;27.90;40.20
16893;DHT22;8563;52.242;9.098;2022-08-11T11:32:10;27.80;39.30
16893;DHT22;8563;52.242;9.098;2022-08-11T11:35:03;27.90;39.30
16893;DHT22;8563;52.242;9.098;2022-08-11T11:37:43;27.90;38.80
16893;DHT22;8563;52.242;9.098;2022-08-11T11:40:18;27.90;38.60
16893;DHT22;8563;52.242;9.098;2022-08-11T11:42:54;27.90;38.00
16893;DHT22;8563;52.242;9.098;2022-08-11T11:45:28;27.80;38.70
16893;DHT22;8563;52.242;9.098;2022-08-11T11:48:01;27.70;38.60
16893;DHT22;8563;52.242;9.098;2022-08-11T11:50:36;27.90;38.10
16893;DHT22;8563;52.242;9.098;2022-08-11T11:53:10;27.80;38.10
16893;DHT22;8563;52.242;9.098;2022-08-11T11:55:45;27.80;38.60
16893;DHT22;8563;52.242;9.098;2022-08-11T11:58:20;27.90;41.30
16893;DHT22;8563;52.242;9.098;2022-08-11T12:01:10;28.00;39.20
16893;DHT22;8563;52.242;9.098;2022-08-11T12:03:52;27.90;41.40
16893;DHT22;8563;52.242;9.098;2022-08-11T12:06:25;27.80;40.10
16893;DHT22;8563;52.242;9.098;2022-08-11T12:08:58;27.70;38.30
16893;DHT22;8563;52.242;9.098;2022-08-11T12:11:34;27.80;38.40
16893;DHT22;8563;52.242;9.098;2022-08-11T12:14:26;27.90;40.40
16893;DHT22;8563;52.242;9.098;2022-08-11T12:16:58;28.00;37.50
16893;DHT22;8563;52.242;9.098;2022-08-11T12:19:31;28.00;39.20
16893;DHT22;8563;52.242;9.098;2022-08-11T12:22:04;27.90;38.10
16893;DHT22;8563;52.242;9.098;2022-08-11T12:24:53;28.10;37.50
16893;DHT22;8563;52.242;9.098;2022-08-11T12:27:43;28.10;37.00
16893;DHT22;8563;52.242;9.098;2022-08-11T12:30:18;28.20;35.40
16893;DHT22;8563;52.242;9.098;2022-08-11T12:32:51;28.10;39.80
16893;DHT22;8563;52.242;9.098;2022-08-11T12:35:24;28.10;37.70
16893;DHT22;8563;52.242;9.098;2022-08-11T12:37:57;28.10;38.10
16893;DHT22;8563;52.242;9.098;2022-08-11T12:40:32;28.00;38.90
16893;DHT22;8563;52.242;9.098;2022-08-11T12:43:23;28.10;35.80
16893;DHT22;8563;52.242;9.098;2022-08-11T12:46:21;28.20;36.60
16893;DHT22;8563;52.242;9.098;2022-08-11T12:48:56;28.30;37.60
16893;DHT22;8563;52.242;9.098;2022-08-11T12:51:50;28.30;36.50
16893;DHT22;8563;52.242;9.098;2022-08-11T12:54:34;28.10;36.40
16893;DHT22;8563;52.242;9.098;2022-08-11T12:57:13;28.10;37.00
16893;DHT22;8563;52.242;9.098;2022-08-11T13:00:04;28.10;39.80
16893;DHT22;8563;52.242;9.098;2022-08-11T13:02:56;28.10;36.60
16893;DHT22;8563;52.242;9.098;2022-08-11T13:05:47;28.00;37.90
16893;DHT22;8563;52.242;9.098;2022-08-11T13:08:24;28.10;38.00
16893;DHT22;8563;52.242;9.098;2022-08-11T13:10:59;28.20;36.80
16893;DHT22;8563;52.242;9.098;2022-08-11T13:13:50;28.30;37.30
16893;DHT22;8563;52.242;9.098;2022-08-11T13:16:29;28.40;34.90
16893;DHT22;8563;52.242;9.098;2022-08-11T13:19:24;28.30;36.00
16893;DHT22;8563;52.242;9.098;2022-08-11T13:21:57;28.40;35.60
16893;DHT22;8563;52.242;9.098;2022-08-11T13:24:30;28.40;37.80
16893;DHT22;8563;52.242;9.098;2022-08-11T13:27:04;28.40;37.80
16893;DHT22;8563;52.242;9.098;2022-08-11T13:29:40;28.40;36.80
16893;DHT22;8563;52.242;9.098;2022-08-11T13:32:18;28.50;35.90
16893;DHT22;8563;52.242;9.098;2022-08-11T13:34:52;28.60;37.20
16893;DHT22;8563;52.242;9.098;2022-08-11T13:37:25;28.50;37.90
16893;DHT22;8563;52.242;9.098;2022-08-11T13:39:58;28.40;36.10
16893;DHT22;8563;52.242;9.098;2022-08-11T13:42:31;28.40;36.80
16893;DHT22;8563;52.242;9.098;2022-08-11T13:45:06;28.40;36.80
16893;DHT22;8563;52.242;9.098;2022-08-11T13:47:39;28.40;36.80
16893;DHT22;8563;52.242;9.098;2022-08-11T13:50:15;28.60;35.60
16893;DHT22;8563;52.242;9.098;2022-08-11T13:52:48;28.50;36.70
16893;DHT22;8563;52.242;9.098;2022-08-11T13:55:21;28.50;35.60
16893;DHT22;8563;52.242;9.098;2022-08-11T13:57:54;28.50;34.50
16893;DHT22;8563;52.242;9.098;2022-08-11T14:00:28;28.50;36.20
16893;DHT22;8563;52.242;9.098;2022-08-11T14:03:02;28.40;35.60
16893;DHT22;8563;52.242;9.098;2022-08-11T14:05:40;28.40;37.50
16893;DHT22;8563;52.242;9.098;2022-08-11T14:08:17;28.40;36.00
16893;DHT22;8563;52.242;9.098;2022-08-11T14:10:51;28.40;36.30
16893;DHT22;8563;52.242;9.098;2022-08-11T14:13:40;28.40;36.30
16893;DHT22;8563;52.242;9.098;2022-08-11T14:16:18;28.50;37.00
16893;DHT22;8563;52.242;9.098;2022-08-11T14:18:53;28.50;37.00
16893;DHT22;8563;52.242;9.098;2022-08-11T14:21:34;28.50;38.00
16893;DHT22;8563;52.242;9.098;2022-08-11T14:24:26;28.30;39.60
16893;DHT22;8563;52.242;9.098;2022-08-11T14:26:59;28.30;38.80
16893;DHT22;8563;52.242;9.098;2022-08-11T14:29:32;28.40;35.30
16893;DHT22;8563;52.242;9.098;2022-08-11T14:32:10;28.30;38.10
16893;DHT22;8563;52.242;9.098;2022-08-11T14:34:43;28.30;38.10
16893;DHT22;8563;52.242;9.098;2022-08-11T14:37:21;28.30;36.20
16893;DHT22;8563;52.242;9.098;2022-08-11T14:39:57;28.40;35.20
16893;DHT22;8563;52.242;9.098;2022-08-11T14:42:29;28.40;34.70
16893;DHT22;8563;52.242;9.098;2022-08-11T14:45:25;28.40;35.50
16893;DHT22;8563;52.242;9.098;2022-08-11T14:48:17;28.40;34.20
16893;DHT22;8563;52.242;9.098;2022-08-11T14:50:50;28.40;35.20
16893;DHT22;8563;52.242;9.098;2022-08-11T14:53:24;28.40;34.70
16893;DHT22;8563;52.242;9.098;2022-08-11T14:55:56;28.40;34.50
16893;DHT22;8563;52.242;9.098;2022-08-11T14:58:47;28.50;34.90
16893;DHT22;8563;52.242;9.098;2022-08-11T15:01:20;28.50;34.60
16893;DHT22;8563;52.242;9.098;2022-08-11T15:04:12;28.50;35.70
16893;DHT22;8563;52.242;9.098;2022-08-11T15:06:46;28.40;36.50
16893;DHT22;8563;52.242;9.098;2022-08-11T15:09:20;28.40;37.00
16893;DHT22;8563;52.242;9.098;2022-08-11T15:11:52;28.30;34.80
16893;DHT22;8563;52.242;9.098;2022-08-11T15:14:46;28.20;34.30
16893;DHT22;8563;52.242;9.098;2022-08-11T15:17:38;28.30;35.10
16893;DHT22;8563;52.242;9.098;2022-08-11T15:20:13;28.30;34.70
16893;DHT22;8563;52.242;9.098;2022-08-11T15:23:05;28.40;34.30
16893;DHT22;8563;52.242;9.098;2022-08-11T15:25:59;28.40;35.70
16893;DHT22;8563;52.242;9.098;2022-08-11T15:28:36;28.30;34.90
16893;DHT22;8563;52.242;9.098;2022-08-11T15:31:28;28.30;34.60
16893;DHT22;8563;52.242;9.098;2022-08-11T15:34:22;28.20;35.60
16893;DHT22;8563;52.242;9.098;2022-08-11T15:37:16;28.20;34.80
16893;DHT22;8563;52.242;9.098;2022-08-11T15:40:06;28.20;35.60
16893;DHT22;8563;52.242;9.098;2022-08-11T15:43:03;28.20;35.40
16893;DHT22;8563;52.242;9.098;2022-08-11T15:45:56;28.20;35.40
16893;DHT22;8563;52.242;9.098;2022-08-11T15:48:40;28.20;35.60
16893;DHT22;8563;52.242;9.098;2022-08-11T15:51:17;28.20;35.00
16893;DHT22;8563;52.242;9.098;2022-08-11T15:53:56;28.20;36.80
16893;DHT22;8563;52.242;9.098;2022-08-11T15:56:30;28.10;36.30
16893;DHT22;8563;52.242;9.098;2022-08-11T15:59:06;28.00;36.80
16893;DHT22;8563;52.242;9.098;2022-08-11T16:01:58;28.00;37.70
16893;DHT22;8563;52.242;9.098;2022-08-11T16:04:56;28.00;37.00
16893;DHT22;8563;52.242;9.098;2022-08-11T16:07:32;27.90;37.80
16893;DHT22;8563;52.242;9.098;2022-08-11T16:10:06;27.90;36.70
16893;DHT22;8563;52.242;9.098;2022-08-11T16:12:44;27.90;37.50
16893;DHT22;8563;52.242;9.098;2022-08-11T16:15:51;28.00;35.80
16893;DHT22;8563;52.242;9.098;2022-08-11T16:18:44;27.90;36.00
16893;DHT22;8563;52.242;9.098;2022-08-11T16:21:19;27.80;36.70
16893;DHT22;8563;52.242;9.098;2022-08-11T16:23:56;27.80;36.10
16893;DHT22;8563;52.242;9.098;2022-08-11T16:26:31;27.80;35.90
16893;DHT22;8563;52.242;9.098;2022-08-11T16:29:07;27.80;35.50
16893;DHT22;8563;52.242;9.098;2022-08-11T16:31:42;27.80;36.80
16893;DHT22;8563;52.242;9.098;2022-08-11T16:34:37;27.70;36.70
16893;DHT22;8563;52.242;9.098;2022-08-11T16:37:27;27.60;36.10
16893;DHT22;8563;52.242;9.098;2022-08-11T16:40:20;27.60;35.40
16893;DHT22;8563;52.242;9.098;2022-08-11T16:42:54;27.60;37.70
16893;DHT22;8563;52.242;9.098;2022-08-11T16:45:45;27.50;38.30
16893;DHT22;8563;52.242;9.098;2022-08-11T16:48:38;27.50;35.90
16893;DHT22;8563;52.242;9.098;2022-08-11T16:51:12;27.70;34.60
16893;DHT22;8563;52.242;9.098;2022-08-11T16:53:47;27.70;35.40
16893;DHT22;8563;52.242;9.098;2022-08-11T16:56:22;27.60;37.10
16893;DHT22;8563;52.242;9.098;2022-08-11T16:58:59;27.60;36.40
16893;DHT22;8563;52.242;9.098;2022-08-11T17:01:47;27.60;35.20
16893;DHT22;8563;52.242;9.098;2022-08-11T17:04:43;27.70;34.80
16893;DHT22;8563;52.242;9.098;2022-08-11T17:07:37;27.70;35.10
16893;DHT22;8563;52.242;9.098;2022-08-11T17:10:32;27.50;36.80
16893;DHT22;8563;52.242;9.098;2022-08-11T17:13:33;27.40;36.30
16893;DHT22;8563;52.242;9.098;2022-08-11T17:16:10;27.30;35.50
16893;DHT22;8563;52.242;9.098;2022-08-11T17:18:46;27.30;35.60
16893;DHT22;8563;52.242;9.098;2022-08-11T17:21:25;27.30;37.10
16893;DHT22;8563;52.242;9.098;2022-08-11T17:24:02;27.20;37.70
16893;DHT22;8563;52.242;9.098;2022-08-11T17:26:38;27.10;36.90
16893;DHT22;8563;52.242;9.098;2022-08-11T17:29:32;27.10;36.80
16893;DHT22;8563;52.242;9.098;2022-08-11T17:32:07;27.10;37.50
16893;DHT22;8563;52.242;9.098;2022-08-11T17:35:02;27.00;37.30
16893;DHT22;8563;52.242;9.098;2022-08-11T17:37:58;27.10;37.00
16893;DHT22;8563;52.242;9.098;2022-08-11T17:40:34;27.00;40.00
16893;DHT22;8563;52.242;9.098;2022-08-11T17:43:09;26.90;37.60
16893;DHT22;8563;52.242;9.098;2022-08-11T17:45:58;26.70;39.30
16893;DHT22;8563;52.242;9.098;2022-08-11T17:48:48;26.70;40.10
16893;DHT22;8563;52.242;9.098;2022-08-11T17:51:22;26.50;37.90
16893;DHT22;8563;52.242;9.098;2022-08-11T17:54:11;26.60;38.80
16893;DHT22;8563;52.242;9.098;2022-08-11T17:57:01;26.40;38.40
16893;DHT22;8563;52.242;9.098;2022-08-11T17:59:52;26.40;38.30
16893;DHT22;8563;52.242;9.098;2022-08-11T18:02:29;26.40;39.10
16893;DHT22;8563;52.242;9.098;2022-08-11T18:05:23;26.30;39.70
16893;DHT22;8563;52.242;9.098;2022-08-11T18:07:59;26.30;38.60
16893;DHT22;8563;52.242;9.098;2022-08-11T18:10:51;26.30;39.10
16893;DHT22;8563;52.242;9.098;2022-08-11T18:13:42;26.20;40.40
16893;DHT22;8563;52.242;9.098;2022-08-11T18:16:32;26.00;40.70
16893;DHT22;8563;52.242;9.098;2022-08-11T18:19:22;25.90;40.40
16893;DHT22;8563;52.242;9.098;2022-08-11T18:22:15;25.80;41.50
16893;DHT22;8563;52.242;9.098;2022-08-11T18:25:09;25.70;42.70
16893;DHT22;8563;52.242;9.098;2022-08-11T18:28:04;25.60;41.30